This is the latest recevied weather packets stored in our database for station/object VA7NEZ. If no packets are shown the sender has not sent any weather packets the latest 10 day(s).
| Time | Temp. | Humidity | Pressure | Rain* | Wind** | Luminosity | Snow |
|---|---|---|---|---|---|---|---|
| 1778225187 | 12.22° C | 53% | 1012.4 hPa | 0 mm | - | - | - |
| 1778224667 | 12.78° C | 53% | 1012.3 hPa | 0 mm | - | - | - |
| 1778224127 | 12.78° C | 52% | 1012.4 hPa | 0 mm | - | - | - |
| 1778223587 | 13.33° C | 53% | 1012.3 hPa | 0 mm | - | - | - |
| 1778222463 | 13.33° C | 53% | 1012.3 hPa | 0 mm | - | - | - |
| 1778221917 | 13.89° C | 53% | 1012.3 hPa | 0 mm | - | - | - |
| 1778221358 | 13.89° C | 53% | 1012.2 hPa | 0 mm | - | - | - |
| 1778220812 | 14.44° C | 48% | 1012.3 hPa | 0 mm | - | - | - |
| 1778220302 | 14.44° C | 50% | 1012.1 hPa | 0 mm | - | - | - |
| 1778219726 | 15° C | 49% | 1012 hPa | 0 mm | - | - | - |
| 1778219187 | 15° C | 49% | 1011.9 hPa | 0 mm | - | - | - |
| 1778218632 | 15.56° C | 48% | 1011.8 hPa | 0 mm | - | - | - |
| 1778216942 | 16.67° C | 45% | 1011.7 hPa | 0 mm | - | - | - |
| 1778215958 | 17.22° C | 47% | 1011.8 hPa | 0 mm | - | - | - |
| 1778215391 | 0° C | 100% | 1011.7 hPa | 0 mm | - | - | - |
| 1778214797 | 18.33° C | 41% | 1011.5 hPa | 0 mm | - | - | - |
| 1778213642 | 18.89° C | 39% | 1011.5 hPa | 0 mm | - | - | - |
| 1778212597 | 20° C | 37% | 1011.4 hPa | 0 mm | - | - | - |
| 1778212101 | 20.56° C | 36% | 1011.2 hPa | 0 mm | - | - | - |
| 1778211622 | 20.56° C | 37% | 1011.3 hPa | 0 mm | - | - | - |
| 1778211067 | 21.67° C | 37% | 1011.2 hPa | 0 mm | - | - | - |
| 1778209937 | 23.33° C | 27% | 1011.3 hPa | 0 mm | - | - | - |
| 1778209352 | 23.89° C | 27% | 1011.1 hPa | 0 mm | - | - | - |
| 1778208872 | 25° C | 26% | 1011.2 hPa | 0 mm | - | - | - |
| 1778208332 | 25.56° C | 26% | 1011.1 hPa | 0 mm | - | - | - |
* Rain latest hour (hover to see other rain measurements)
** Current wind speed in m/s (hover to see current wind gust speed)